sensor_id;sensor_type;location;lat;lon;timestamp;P1;durP1;ratioP1;P2;durP2;ratioP2
2161;SDS011;1087;50.226;8.682;2023-05-10T00:00:12;3.23;;;2.30;;
2161;SDS011;1087;50.226;8.682;2023-05-10T00:02:38;2.60;;;2.40;;
2161;SDS011;1087;50.226;8.682;2023-05-10T00:05:04;1.87;;;1.67;;
2161;SDS011;1087;50.226;8.682;2023-05-10T00:07:30;2.60;;;1.30;;
2161;SDS011;1087;50.226;8.682;2023-05-10T00:09:55;1.83;;;1.50;;
2161;SDS011;1087;50.226;8.682;2023-05-10T00:12:21;1.20;;;1.10;;
2161;SDS011;1087;50.226;8.682;2023-05-10T00:14:46;1.60;;;1.50;;
2161;SDS011;1087;50.226;8.682;2023-05-10T00:17:12;1.33;;;1.23;;
2161;SDS011;1087;50.226;8.682;2023-05-10T00:19:38;2.90;;;1.70;;
2161;SDS011;1087;50.226;8.682;2023-05-10T00:22:03;1.20;;;1.10;;
2161;SDS011;1087;50.226;8.682;2023-05-10T00:24:29;1.83;;;1.20;;
2161;SDS011;1087;50.226;8.682;2023-05-10T00:26:54;2.00;;;1.13;;
2161;SDS011;1087;50.226;8.682;2023-05-10T00:29:20;2.93;;;1.20;;
2161;SDS011;1087;50.226;8.682;2023-05-10T00:31:45;2.37;;;1.20;;
2161;SDS011;1087;50.226;8.682;2023-05-10T00:34:11;2.30;;;2.10;;
2161;SDS011;1087;50.226;8.682;2023-05-10T00:36:36;1.03;;;0.93;;
2161;SDS011;1087;50.226;8.682;2023-05-10T00:39:02;1.63;;;1.23;;
2161;SDS011;1087;50.226;8.682;2023-05-10T00:41:28;1.60;;;0.90;;
2161;SDS011;1087;50.226;8.682;2023-05-10T00:43:56;1.83;;;1.00;;
2161;SDS011;1087;50.226;8.682;2023-05-10T00:46:22;1.87;;;1.27;;
2161;SDS011;1087;50.226;8.682;2023-05-10T00:48:48;2.50;;;1.00;;
2161;SDS011;1087;50.226;8.682;2023-05-10T00:51:14;1.30;;;0.90;;
2161;SDS011;1087;50.226;8.682;2023-05-10T00:53:39;2.60;;;1.10;;
2161;SDS011;1087;50.226;8.682;2023-05-10T00:56:05;0.93;;;0.90;;
2161;SDS011;1087;50.226;8.682;2023-05-10T00:58:31;1.30;;;1.00;;
2161;SDS011;1087;50.226;8.682;2023-05-10T01:00:57;2.93;;;0.93;;
2161;SDS011;1087;50.226;8.682;2023-05-10T01:03:24;1.13;;;1.00;;
2161;SDS011;1087;50.226;8.682;2023-05-10T01:05:50;1.10;;;1.00;;
2161;SDS011;1087;50.226;8.682;2023-05-10T01:08:16;1.47;;;0.80;;
2161;SDS011;1087;50.226;8.682;2023-05-10T01:10:42;1.30;;;1.20;;
2161;SDS011;1087;50.226;8.682;2023-05-10T01:13:09;1.23;;;1.13;;
2161;SDS011;1087;50.226;8.682;2023-05-10T01:15:35;1.53;;;0.90;;
2161;SDS011;1087;50.226;8.682;2023-05-10T01:18:01;2.03;;;1.10;;
2161;SDS011;1087;50.226;8.682;2023-05-10T01:20:28;1.20;;;0.90;;
2161;SDS011;1087;50.226;8.682;2023-05-10T01:23:09;1.17;;;0.90;;
2161;SDS011;1087;50.226;8.682;2023-05-10T01:28:40;2.10;;;0.90;;
2161;SDS011;1087;50.226;8.682;2023-05-10T01:31:22;2.20;;;1.10;;
2161;SDS011;1087;50.226;8.682;2023-05-10T01:34:06;0.87;;;0.80;;
2161;SDS011;1087;50.226;8.682;2023-05-10T01:36:51;1.03;;;0.93;;
2161;SDS011;1087;50.226;8.682;2023-05-10T01:39:24;1.53;;;1.03;;
2161;SDS011;1087;50.226;8.682;2023-05-10T01:44:34;2.27;;;1.10;;
2161;SDS011;1087;50.226;8.682;2023-05-10T01:47:05;1.00;;;0.90;;
2161;SDS011;1087;50.226;8.682;2023-05-10T01:49:36;2.00;;;1.20;;
2161;SDS011;1087;50.226;8.682;2023-05-10T01:52:08;1.67;;;1.57;;
2161;SDS011;1087;50.226;8.682;2023-05-10T01:54:38;1.83;;;1.40;;
2161;SDS011;1087;50.226;8.682;2023-05-10T01:57:25;2.07;;;1.70;;
2161;SDS011;1087;50.226;8.682;2023-05-10T01:59:57;1.63;;;1.20;;
2161;SDS011;1087;50.226;8.682;2023-05-10T02:02:26;1.30;;;0.90;;
2161;SDS011;1087;50.226;8.682;2023-05-10T02:04:53;1.00;;;0.90;;
2161;SDS011;1087;50.226;8.682;2023-05-10T02:07:20;1.10;;;1.00;;
2161;SDS011;1087;50.226;8.682;2023-05-10T02:09:47;0.83;;;0.83;;
2161;SDS011;1087;50.226;8.682;2023-05-10T02:12:13;1.47;;;1.37;;
2161;SDS011;1087;50.226;8.682;2023-05-10T02:14:40;1.47;;;1.37;;
2161;SDS011;1087;50.226;8.682;2023-05-10T02:17:07;1.20;;;1.10;;
2161;SDS011;1087;50.226;8.682;2023-05-10T02:19:34;1.77;;;1.10;;
2161;SDS011;1087;50.226;8.682;2023-05-10T02:22:02;1.37;;;1.00;;
2161;SDS011;1087;50.226;8.682;2023-05-10T02:24:28;1.13;;;1.00;;
2161;SDS011;1087;50.226;8.682;2023-05-10T02:26:55;1.50;;;1.40;;
2161;SDS011;1087;50.226;8.682;2023-05-10T02:29:22;2.73;;;1.20;;
2161;SDS011;1087;50.226;8.682;2023-05-10T02:31:50;2.20;;;1.27;;
2161;SDS011;1087;50.226;8.682;2023-05-10T02:34:17;1.40;;;1.27;;
2161;SDS011;1087;50.226;8.682;2023-05-10T02:36:44;2.47;;;1.10;;
2161;SDS011;1087;50.226;8.682;2023-05-10T02:39:09;2.07;;;1.10;;
2161;SDS011;1087;50.226;8.682;2023-05-10T02:41:38;1.40;;;1.17;;
2161;SDS011;1087;50.226;8.682;2023-05-10T02:44:06;1.50;;;1.40;;
2161;SDS011;1087;50.226;8.682;2023-05-10T02:46:34;1.30;;;1.20;;
2161;SDS011;1087;50.226;8.682;2023-05-10T02:49:00;2.27;;;1.20;;
2161;SDS011;1087;50.226;8.682;2023-05-10T02:51:27;3.53;;;1.20;;
2161;SDS011;1087;50.226;8.682;2023-05-10T02:53:56;2.07;;;1.50;;
2161;SDS011;1087;50.226;8.682;2023-05-10T02:56:31;1.63;;;1.53;;
2161;SDS011;1087;50.226;8.682;2023-05-10T02:58:59;1.27;;;1.17;;
2161;SDS011;1087;50.226;8.682;2023-05-10T03:01:25;1.60;;;1.40;;
2161;SDS011;1087;50.226;8.682;2023-05-10T03:03:50;1.43;;;1.33;;
2161;SDS011;1087;50.226;8.682;2023-05-10T03:06:16;1.37;;;1.27;;
2161;SDS011;1087;50.226;8.682;2023-05-10T03:08:42;2.10;;;1.10;;
2161;SDS011;1087;50.226;8.682;2023-05-10T03:16:56;1.73;;;1.30;;
2161;SDS011;1087;50.226;8.682;2023-05-10T03:19:40;1.30;;;1.20;;
2161;SDS011;1087;50.226;8.682;2023-05-10T03:22:13;1.60;;;1.50;;
2161;SDS011;1087;50.226;8.682;2023-05-10T03:24:48;3.50;;;1.80;;
2161;SDS011;1087;50.226;8.682;2023-05-10T03:27:14;2.40;;;1.40;;
2161;SDS011;1087;50.226;8.682;2023-05-10T03:29:40;1.83;;;1.60;;
2161;SDS011;1087;50.226;8.682;2023-05-10T03:32:07;1.60;;;1.50;;
2161;SDS011;1087;50.226;8.682;2023-05-10T03:34:33;1.67;;;1.57;;
2161;SDS011;1087;50.226;8.682;2023-05-10T03:36:58;1.90;;;1.60;;
2161;SDS011;1087;50.226;8.682;2023-05-10T03:39:24;1.20;;;1.10;;
2161;SDS011;1087;50.226;8.682;2023-05-10T03:41:49;1.43;;;1.33;;
2161;SDS011;1087;50.226;8.682;2023-05-10T03:44:15;1.67;;;1.57;;
2161;SDS011;1087;50.226;8.682;2023-05-10T03:46:41;1.50;;;1.40;;
2161;SDS011;1087;50.226;8.682;2023-05-10T03:49:06;1.50;;;1.40;;
2161;SDS011;1087;50.226;8.682;2023-05-10T03:51:32;3.40;;;1.60;;
2161;SDS011;1087;50.226;8.682;2023-05-10T03:53:57;1.73;;;1.63;;
2161;SDS011;1087;50.226;8.682;2023-05-10T03:56:23;1.70;;;1.60;;
2161;SDS011;1087;50.226;8.682;2023-05-10T03:58:48;1.63;;;1.50;;
2161;SDS011;1087;50.226;8.682;2023-05-10T04:01:14;2.60;;;1.80;;
2161;SDS011;1087;50.226;8.682;2023-05-10T04:03:39;2.60;;;2.40;;
2161;SDS011;1087;50.226;8.682;2023-05-10T04:06:05;3.70;;;2.00;;
2161;SDS011;1087;50.226;8.682;2023-05-10T04:08:33;2.50;;;1.93;;
2161;SDS011;1087;50.226;8.682;2023-05-10T04:11:16;2.40;;;2.20;;
2161;SDS011;1087;50.226;8.682;2023-05-10T04:13:42;2.27;;;1.83;;
2161;SDS011;1087;50.226;8.682;2023-05-10T04:16:08;2.10;;;1.80;;
2161;SDS011;1087;50.226;8.682;2023-05-10T04:18:33;2.50;;;1.40;;
2161;SDS011;1087;50.226;8.682;2023-05-10T04:20:59;1.90;;;1.70;;
2161;SDS011;1087;50.226;8.682;2023-05-10T04:23:25;2.27;;;2.10;;
2161;SDS011;1087;50.226;8.682;2023-05-10T04:25:52;4.33;;;2.13;;
2161;SDS011;1087;50.226;8.682;2023-05-10T04:28:17;1.90;;;1.80;;
2161;SDS011;1087;50.226;8.682;2023-05-10T04:30:43;3.90;;;2.43;;
2161;SDS011;1087;50.226;8.682;2023-05-10T04:33:08;3.20;;;2.10;;
2161;SDS011;1087;50.226;8.682;2023-05-10T04:35:34;2.73;;;2.00;;
2161;SDS011;1087;50.226;8.682;2023-05-10T04:38:00;2.13;;;1.90;;
2161;SDS011;1087;50.226;8.682;2023-05-10T04:40:25;2.33;;;2.13;;
2161;SDS011;1087;50.226;8.682;2023-05-10T04:42:51;3.77;;;2.80;;
2161;SDS011;1087;50.226;8.682;2023-05-10T04:45:16;2.60;;;2.40;;
2161;SDS011;1087;50.226;8.682;2023-05-10T04:47:42;2.60;;;2.40;;
2161;SDS011;1087;50.226;8.682;2023-05-10T04:50:08;2.83;;;2.63;;
2161;SDS011;1087;50.226;8.682;2023-05-10T04:52:33;2.70;;;2.37;;
2161;SDS011;1087;50.226;8.682;2023-05-10T04:54:59;4.60;;;2.70;;
2161;SDS011;1087;50.226;8.682;2023-05-10T04:57:24;2.80;;;2.60;;
2161;SDS011;1087;50.226;8.682;2023-05-10T04:59:50;2.40;;;2.20;;
2161;SDS011;1087;50.226;8.682;2023-05-10T05:02:16;2.57;;;2.37;;
2161;SDS011;1087;50.226;8.682;2023-05-10T05:04:41;2.70;;;2.50;;
2161;SDS011;1087;50.226;8.682;2023-05-10T05:07:07;2.10;;;2.00;;
2161;SDS011;1087;50.226;8.682;2023-05-10T05:09:32;4.30;;;2.57;;
2161;SDS011;1087;50.226;8.682;2023-05-10T05:11:58;1.90;;;1.80;;
2161;SDS011;1087;50.226;8.682;2023-05-10T05:14:23;2.63;;;2.43;;
2161;SDS011;1087;50.226;8.682;2023-05-10T05:16:52;3.37;;;2.43;;
2161;SDS011;1087;50.226;8.682;2023-05-10T05:19:17;2.63;;;2.20;;
2161;SDS011;1087;50.226;8.682;2023-05-10T05:21:43;2.50;;;1.97;;
2161;SDS011;1087;50.226;8.682;2023-05-10T05:24:09;3.20;;;2.70;;
2161;SDS011;1087;50.226;8.682;2023-05-10T05:26:35;2.70;;;2.50;;
2161;SDS011;1087;50.226;8.682;2023-05-10T05:29:01;2.90;;;2.50;;
2161;SDS011;1087;50.226;8.682;2023-05-10T05:31:27;2.73;;;2.50;;
2161;SDS011;1087;50.226;8.682;2023-05-10T05:33:53;2.30;;;2.10;;
2161;SDS011;1087;50.226;8.682;2023-05-10T05:36:19;2.40;;;2.20;;
2161;SDS011;1087;50.226;8.682;2023-05-10T05:38:44;2.67;;;2.47;;
2161;SDS011;1087;50.226;8.682;2023-05-10T05:41:10;3.60;;;2.37;;
2161;SDS011;1087;50.226;8.682;2023-05-10T05:43:35;2.50;;;2.30;;
2161;SDS011;1087;50.226;8.682;2023-05-10T05:46:01;3.03;;;2.73;;
2161;SDS011;1087;50.226;8.682;2023-05-10T05:48:26;3.73;;;2.63;;
2161;SDS011;1087;50.226;8.682;2023-05-10T05:50:55;3.07;;;2.50;;
2161;SDS011;1087;50.226;8.682;2023-05-10T05:53:22;3.57;;;2.30;;
2161;SDS011;1087;50.226;8.682;2023-05-10T05:55:51;3.00;;;2.60;;
2161;SDS011;1087;50.226;8.682;2023-05-10T05:58:19;2.87;;;2.67;;
2161;SDS011;1087;50.226;8.682;2023-05-10T06:00:44;3.13;;;2.93;;
2161;SDS011;1087;50.226;8.682;2023-05-10T06:03:10;4.10;;;2.67;;
2161;SDS011;1087;50.226;8.682;2023-05-10T06:05:35;2.80;;;2.27;;
2161;SDS011;1087;50.226;8.682;2023-05-10T06:08:01;3.37;;;2.70;;
2161;SDS011;1087;50.226;8.682;2023-05-10T06:10:26;3.20;;;2.90;;
2161;SDS011;1087;50.226;8.682;2023-05-10T06:12:52;4.43;;;3.43;;
2161;SDS011;1087;50.226;8.682;2023-05-10T06:15:18;3.07;;;2.87;;
2161;SDS011;1087;50.226;8.682;2023-05-10T06:17:43;2.70;;;2.50;;
2161;SDS011;1087;50.226;8.682;2023-05-10T06:20:09;3.40;;;3.10;;
2161;SDS011;1087;50.226;8.682;2023-05-10T06:22:35;4.37;;;3.07;;
2161;SDS011;1087;50.226;8.682;2023-05-10T06:25:00;3.50;;;3.13;;
2161;SDS011;1087;50.226;8.682;2023-05-10T06:27:26;3.23;;;2.93;;
2161;SDS011;1087;50.226;8.682;2023-05-10T06:29:52;3.73;;;3.30;;
2161;SDS011;1087;50.226;8.682;2023-05-10T06:32:17;3.80;;;3.50;;
2161;SDS011;1087;50.226;8.682;2023-05-10T06:34:43;3.80;;;3.50;;
2161;SDS011;1087;50.226;8.682;2023-05-10T06:37:09;4.23;;;3.83;;
2161;SDS011;1087;50.226;8.682;2023-05-10T06:39:35;3.63;;;3.07;;
2161;SDS011;1087;50.226;8.682;2023-05-10T06:42:01;3.37;;;3.07;;
2161;SDS011;1087;50.226;8.682;2023-05-10T06:44:28;3.90;;;3.60;;
2161;SDS011;1087;50.226;8.682;2023-05-10T06:46:54;3.90;;;3.40;;
2161;SDS011;1087;50.226;8.682;2023-05-10T06:49:20;3.37;;;3.07;;
2161;SDS011;1087;50.226;8.682;2023-05-10T06:51:46;3.50;;;3.20;;
2161;SDS011;1087;50.226;8.682;2023-05-10T06:54:12;3.90;;;3.47;;
2161;SDS011;1087;50.226;8.682;2023-05-10T06:56:38;3.70;;;3.40;;
2161;SDS011;1087;50.226;8.682;2023-05-10T06:59:04;3.10;;;2.80;;
2161;SDS011;1087;50.226;8.682;2023-05-10T07:01:29;3.53;;;2.80;;
2161;SDS011;1087;50.226;8.682;2023-05-10T07:03:55;3.80;;;3.50;;
2161;SDS011;1087;50.226;8.682;2023-05-10T07:06:20;5.60;;;3.43;;
2161;SDS011;1087;50.226;8.682;2023-05-10T07:08:46;3.97;;;2.63;;
2161;SDS011;1087;50.226;8.682;2023-05-10T07:11:12;3.70;;;3.30;;
2161;SDS011;1087;50.226;8.682;2023-05-10T07:13:37;4.73;;;3.53;;
2161;SDS011;1087;50.226;8.682;2023-05-10T07:16:06;3.90;;;3.40;;
2161;SDS011;1087;50.226;8.682;2023-05-10T07:18:32;3.87;;;3.57;;
2161;SDS011;1087;50.226;8.682;2023-05-10T07:20:58;3.23;;;2.93;;
2161;SDS011;1087;50.226;8.682;2023-05-10T07:23:25;3.20;;;2.90;;
2161;SDS011;1087;50.226;8.682;2023-05-10T07:25:50;2.50;;;2.30;;
2161;SDS011;1087;50.226;8.682;2023-05-10T07:28:17;3.17;;;2.80;;
2161;SDS011;1087;50.226;8.682;2023-05-10T07:30:43;2.70;;;2.50;;
2161;SDS011;1087;50.226;8.682;2023-05-10T07:33:09;3.00;;;2.70;;
2161;SDS011;1087;50.226;8.682;2023-05-10T07:35:36;4.17;;;3.77;;
2161;SDS011;1087;50.226;8.682;2023-05-10T07:38:02;3.17;;;2.87;;
2161;SDS011;1087;50.226;8.682;2023-05-10T07:40:27;3.77;;;3.47;;
2161;SDS011;1087;50.226;8.682;2023-05-10T07:42:53;3.20;;;2.90;;
2161;SDS011;1087;50.226;8.682;2023-05-10T07:45:19;2.83;;;2.60;;
2161;SDS011;1087;50.226;8.682;2023-05-10T07:47:45;3.00;;;2.67;;
2161;SDS011;1087;50.226;8.682;2023-05-10T07:50:10;4.00;;;3.13;;
2161;SDS011;1087;50.226;8.682;2023-05-10T07:52:36;3.53;;;3.20;;
2161;SDS011;1087;50.226;8.682;2023-05-10T07:55:01;4.90;;;3.53;;
2161;SDS011;1087;50.226;8.682;2023-05-10T07:57:27;3.93;;;3.30;;
2161;SDS011;1087;50.226;8.682;2023-05-10T07:59:52;3.80;;;3.37;;
2161;SDS011;1087;50.226;8.682;2023-05-10T08:02:18;3.73;;;3.43;;
2161;SDS011;1087;50.226;8.682;2023-05-10T08:04:43;5.83;;;3.70;;
2161;SDS011;1087;50.226;8.682;2023-05-10T08:07:09;4.37;;;3.97;;
2161;SDS011;1087;50.226;8.682;2023-05-10T08:09:35;5.80;;;3.63;;
2161;SDS011;1087;50.226;8.682;2023-05-10T08:12:01;3.67;;;3.37;;
2161;SDS011;1087;50.226;8.682;2023-05-10T08:14:27;5.40;;;3.40;;
2161;SDS011;1087;50.226;8.682;2023-05-10T08:16:54;4.40;;;3.30;;
2161;SDS011;1087;50.226;8.682;2023-05-10T08:19:20;4.40;;;3.47;;
2161;SDS011;1087;50.226;8.682;2023-05-10T08:21:46;5.40;;;3.80;;
2161;SDS011;1087;50.226;8.682;2023-05-10T08:24:12;12.10;;;4.20;;
2161;SDS011;1087;50.226;8.682;2023-05-10T08:26:38;3.33;;;3.03;;
2161;SDS011;1087;50.226;8.682;2023-05-10T08:29:03;3.33;;;3.03;;
2161;SDS011;1087;50.226;8.682;2023-05-10T08:31:29;4.50;;;3.27;;
2161;SDS011;1087;50.226;8.682;2023-05-10T08:33:55;3.00;;;2.80;;
2161;SDS011;1087;50.226;8.682;2023-05-10T08:36:20;5.80;;;3.80;;
2161;SDS011;1087;50.226;8.682;2023-05-10T08:38:52;2.90;;;2.70;;
2161;SDS011;1087;50.226;8.682;2023-05-10T08:41:21;4.37;;;3.20;;
2161;SDS011;1087;50.226;8.682;2023-05-10T08:43:49;3.50;;;3.20;;
2161;SDS011;1087;50.226;8.682;2023-05-10T08:46:16;3.67;;;3.00;;
2161;SDS011;1087;50.226;8.682;2023-05-10T08:48:46;3.00;;;2.67;;
2161;SDS011;1087;50.226;8.682;2023-05-10T08:51:13;4.43;;;2.70;;
2161;SDS011;1087;50.226;8.682;2023-05-10T08:53:40;4.03;;;2.83;;
2161;SDS011;1087;50.226;8.682;2023-05-10T08:56:06;3.47;;;3.17;;
2161;SDS011;1087;50.226;8.682;2023-05-10T08:58:32;3.80;;;3.00;;
2161;SDS011;1087;50.226;8.682;2023-05-10T09:00:57;3.40;;;2.67;;
2161;SDS011;1087;50.226;8.682;2023-05-10T09:03:24;3.23;;;2.83;;
2161;SDS011;1087;50.226;8.682;2023-05-10T09:05:49;4.57;;;3.23;;
2161;SDS011;1087;50.226;8.682;2023-05-10T09:08:15;4.93;;;3.63;;
2161;SDS011;1087;50.226;8.682;2023-05-10T09:10:45;4.70;;;3.40;;
2161;SDS011;1087;50.226;8.682;2023-05-10T09:13:12;3.87;;;3.57;;
2161;SDS011;1087;50.226;8.682;2023-05-10T09:15:39;3.33;;;3.00;;
2161;SDS011;1087;50.226;8.682;2023-05-10T09:18:04;4.30;;;3.50;;
2161;SDS011;1087;50.226;8.682;2023-05-10T09:20:30;5.67;;;3.30;;
2161;SDS011;1087;50.226;8.682;2023-05-10T09:22:56;4.87;;;4.00;;
2161;SDS011;1087;50.226;8.682;2023-05-10T09:25:21;3.50;;;3.20;;
2161;SDS011;1087;50.226;8.682;2023-05-10T09:27:47;4.20;;;3.00;;
2161;SDS011;1087;50.226;8.682;2023-05-10T09:30:17;4.57;;;3.60;;
2161;SDS011;1087;50.226;8.682;2023-05-10T09:32:48;4.10;;;3.57;;
2161;SDS011;1087;50.226;8.682;2023-05-10T09:35:16;4.33;;;3.40;;
2161;SDS011;1087;50.226;8.682;2023-05-10T09:37:45;3.47;;;3.17;;
2161;SDS011;1087;50.226;8.682;2023-05-10T09:40:16;4.50;;;2.90;;
2161;SDS011;1087;50.226;8.682;2023-05-10T09:45:19;3.40;;;3.20;;
2161;SDS011;1087;50.226;8.682;2023-05-10T09:47:45;4.87;;;3.80;;
2161;SDS011;1087;50.226;8.682;2023-05-10T09:50:11;3.97;;;3.13;;
2161;SDS011;1087;50.226;8.682;2023-05-10T09:52:46;4.27;;;3.70;;
2161;SDS011;1087;50.226;8.682;2023-05-10T09:55:13;2.80;;;2.60;;
2161;SDS011;1087;50.226;8.682;2023-05-10T09:57:39;4.70;;;3.27;;
2161;SDS011;1087;50.226;8.682;2023-05-10T10:00:06;3.80;;;2.90;;
2161;SDS011;1087;50.226;8.682;2023-05-10T10:02:32;4.50;;;3.17;;
2161;SDS011;1087;50.226;8.682;2023-05-10T10:04:59;2.73;;;2.13;;
2161;SDS011;1087;50.226;8.682;2023-05-10T10:07:26;2.70;;;2.40;;
2161;SDS011;1087;50.226;8.682;2023-05-10T10:09:52;2.40;;;2.20;;
2161;SDS011;1087;50.226;8.682;2023-05-10T10:12:19;2.70;;;2.50;;
2161;SDS011;1087;50.226;8.682;2023-05-10T10:14:45;3.10;;;2.20;;
2161;SDS011;1087;50.226;8.682;2023-05-10T10:17:15;3.90;;;2.33;;
2161;SDS011;1087;50.226;8.682;2023-05-10T10:19:41;4.43;;;2.67;;
2161;SDS011;1087;50.226;8.682;2023-05-10T10:22:07;3.00;;;2.20;;
2161;SDS011;1087;50.226;8.682;2023-05-10T10:24:32;2.50;;;2.17;;
2161;SDS011;1087;50.226;8.682;2023-05-10T10:27:10;2.50;;;2.30;;
2161;SDS011;1087;50.226;8.682;2023-05-10T10:30:02;2.63;;;1.90;;
2161;SDS011;1087;50.226;8.682;2023-05-10T10:35:42;3.90;;;2.00;;
2161;SDS011;1087;50.226;8.682;2023-05-10T10:38:12;2.03;;;1.93;;
2161;SDS011;1087;50.226;8.682;2023-05-10T10:40:38;2.70;;;2.33;;
2161;SDS011;1087;50.226;8.682;2023-05-10T10:43:23;2.20;;;2.00;;
2161;SDS011;1087;50.226;8.682;2023-05-10T10:46:09;2.73;;;2.23;;
2161;SDS011;1087;50.226;8.682;2023-05-10T10:48:40;3.23;;;2.93;;
2161;SDS011;1087;50.226;8.682;2023-05-10T10:51:12;2.80;;;2.60;;
2161;SDS011;1087;50.226;8.682;2023-05-10T10:53:39;3.37;;;2.47;;
2161;SDS011;1087;50.226;8.682;2023-05-10T10:56:12;3.20;;;2.90;;
2161;SDS011;1087;50.226;8.682;2023-05-10T10:58:40;4.57;;;2.77;;
2161;SDS011;1087;50.226;8.682;2023-05-10T11:01:16;4.23;;;2.97;;
2161;SDS011;1087;50.226;8.682;2023-05-10T11:06:32;2.57;;;2.27;;
2161;SDS011;1087;50.226;8.682;2023-05-10T11:09:06;4.40;;;2.40;;
2161;SDS011;1087;50.226;8.682;2023-05-10T11:11:34;3.60;;;1.83;;
2161;SDS011;1087;50.226;8.682;2023-05-10T11:14:04;2.93;;;2.30;;
2161;SDS011;1087;50.226;8.682;2023-05-10T11:16:40;4.90;;;2.77;;
2161;SDS011;1087;50.226;8.682;2023-05-10T11:19:07;3.20;;;2.27;;
2161;SDS011;1087;50.226;8.682;2023-05-10T11:21:44;2.57;;;2.37;;
2161;SDS011;1087;50.226;8.682;2023-05-10T11:24:36;3.30;;;2.40;;
2161;SDS011;1087;50.226;8.682;2023-05-10T11:27:02;3.37;;;2.10;;
2161;SDS011;1087;50.226;8.682;2023-05-10T11:29:28;2.60;;;2.00;;
2161;SDS011;1087;50.226;8.682;2023-05-10T11:31:56;2.40;;;2.13;;
2161;SDS011;1087;50.226;8.682;2023-05-10T11:34:31;2.60;;;1.80;;
2161;SDS011;1087;50.226;8.682;2023-05-10T11:36:59;2.40;;;2.17;;
2161;SDS011;1087;50.226;8.682;2023-05-10T11:39:29;3.10;;;2.20;;
2161;SDS011;1087;50.226;8.682;2023-05-10T11:41:57;4.50;;;2.13;;
2161;SDS011;1087;50.226;8.682;2023-05-10T11:44:29;3.30;;;2.70;;
2161;SDS011;1087;50.226;8.682;2023-05-10T11:46:58;2.83;;;1.83;;
2161;SDS011;1087;50.226;8.682;2023-05-10T11:49:25;3.57;;;2.20;;
2161;SDS011;1087;50.226;8.682;2023-05-10T11:51:51;2.30;;;1.77;;
2161;SDS011;1087;50.226;8.682;2023-05-10T11:54:16;2.60;;;2.40;;
2161;SDS011;1087;50.226;8.682;2023-05-10T11:56:42;3.27;;;1.90;;
2161;SDS011;1087;50.226;8.682;2023-05-10T11:59:07;2.30;;;1.43;;
2161;SDS011;1087;50.226;8.682;2023-05-10T12:01:33;1.80;;;1.30;;
2161;SDS011;1087;50.226;8.682;2023-05-10T12:03:58;2.00;;;1.37;;
2161;SDS011;1087;50.226;8.682;2023-05-10T12:06:29;1.70;;;1.60;;
2161;SDS011;1087;50.226;8.682;2023-05-10T12:08:56;2.03;;;1.63;;
2161;SDS011;1087;50.226;8.682;2023-05-10T12:11:26;1.70;;;1.60;;
2161;SDS011;1087;50.226;8.682;2023-05-10T12:13:53;1.80;;;1.70;;
2161;SDS011;1087;50.226;8.682;2023-05-10T12:16:20;1.83;;;1.70;;
2161;SDS011;1087;50.226;8.682;2023-05-10T12:18:51;1.73;;;1.40;;
2161;SDS011;1087;50.226;8.682;2023-05-10T12:21:18;1.47;;;1.37;;
2161;SDS011;1087;50.226;8.682;2023-05-10T12:23:50;2.33;;;1.80;;
2161;SDS011;1087;50.226;8.682;2023-05-10T12:26:23;1.70;;;1.60;;
2161;SDS011;1087;50.226;8.682;2023-05-10T12:28:51;2.30;;;1.30;;
2161;SDS011;1087;50.226;8.682;2023-05-10T12:31:18;1.50;;;1.40;;
2161;SDS011;1087;50.226;8.682;2023-05-10T12:33:43;2.20;;;2.00;;
2161;SDS011;1087;50.226;8.682;2023-05-10T12:36:10;1.90;;;1.80;;
2161;SDS011;1087;50.226;8.682;2023-05-10T12:38:41;3.00;;;1.70;;
2161;SDS011;1087;50.226;8.682;2023-05-10T12:41:08;1.53;;;1.43;;
2161;SDS011;1087;50.226;8.682;2023-05-10T12:43:35;2.07;;;1.50;;
2161;SDS011;1087;50.226;8.682;2023-05-10T12:46:05;4.00;;;2.27;;
2161;SDS011;1087;50.226;8.682;2023-05-10T12:48:32;1.37;;;1.20;;
2161;SDS011;1087;50.226;8.682;2023-05-10T12:50:59;1.70;;;1.60;;
2161;SDS011;1087;50.226;8.682;2023-05-10T12:53:25;1.50;;;1.40;;
2161;SDS011;1087;50.226;8.682;2023-05-10T12:55:51;2.60;;;1.60;;
2161;SDS011;1087;50.226;8.682;2023-05-10T12:58:16;2.27;;;1.50;;
2161;SDS011;1087;50.226;8.682;2023-05-10T13:00:42;2.33;;;1.63;;
2161;SDS011;1087;50.226;8.682;2023-05-10T13:03:08;3.20;;;1.33;;
2161;SDS011;1087;50.226;8.682;2023-05-10T13:05:34;2.00;;;1.80;;
2161;SDS011;1087;50.226;8.682;2023-05-10T13:08:00;1.93;;;1.33;;
2161;SDS011;1087;50.226;8.682;2023-05-10T13:10:26;1.80;;;1.20;;
2161;SDS011;1087;50.226;8.682;2023-05-10T13:12:52;1.40;;;1.30;;
2161;SDS011;1087;50.226;8.682;2023-05-10T13:15:18;1.30;;;1.20;;
2161;SDS011;1087;50.226;8.682;2023-05-10T13:17:43;1.40;;;1.17;;
2161;SDS011;1087;50.226;8.682;2023-05-10T13:20:10;2.03;;;1.30;;
2161;SDS011;1087;50.226;8.682;2023-05-10T13:22:36;1.57;;;1.40;;
2161;SDS011;1087;50.226;8.682;2023-05-10T13:25:01;1.53;;;1.40;;
2161;SDS011;1087;50.226;8.682;2023-05-10T13:27:27;1.83;;;1.23;;
2161;SDS011;1087;50.226;8.682;2023-05-10T13:29:53;1.50;;;1.40;;
2161;SDS011;1087;50.226;8.682;2023-05-10T13:32:20;1.50;;;1.40;;
2161;SDS011;1087;50.226;8.682;2023-05-10T13:34:46;1.97;;;1.33;;
2161;SDS011;1087;50.226;8.682;2023-05-10T13:37:11;2.33;;;1.60;;
2161;SDS011;1087;50.226;8.682;2023-05-10T13:39:37;2.70;;;1.40;;
2161;SDS011;1087;50.226;8.682;2023-05-10T13:42:03;1.30;;;1.20;;
2161;SDS011;1087;50.226;8.682;2023-05-10T13:44:29;1.60;;;1.50;;
2161;SDS011;1087;50.226;8.682;2023-05-10T13:46:55;1.87;;;1.77;;
2161;SDS011;1087;50.226;8.682;2023-05-10T13:49:21;2.13;;;1.40;;
2161;SDS011;1087;50.226;8.682;2023-05-10T13:51:47;3.47;;;1.30;;
2161;SDS011;1087;50.226;8.682;2023-05-10T13:54:12;1.50;;;1.40;;
2161;SDS011;1087;50.226;8.682;2023-05-10T13:56:38;1.70;;;1.60;;
2161;SDS011;1087;50.226;8.682;2023-05-10T13:59:04;2.60;;;1.70;;
2161;SDS011;1087;50.226;8.682;2023-05-10T14:01:30;2.60;;;1.70;;
2161;SDS011;1087;50.226;8.682;2023-05-10T14:03:56;2.80;;;1.60;;
2161;SDS011;1087;50.226;8.682;2023-05-10T14:06:21;1.73;;;1.60;;
2161;SDS011;1087;50.226;8.682;2023-05-10T14:08:47;1.47;;;1.37;;
2161;SDS011;1087;50.226;8.682;2023-05-10T14:11:13;3.53;;;1.73;;
2161;SDS011;1087;50.226;8.682;2023-05-10T14:13:40;2.43;;;1.50;;
2161;SDS011;1087;50.226;8.682;2023-05-10T14:16:05;2.20;;;1.30;;
2161;SDS011;1087;50.226;8.682;2023-05-10T14:18:31;2.63;;;1.50;;
2161;SDS011;1087;50.226;8.682;2023-05-10T14:20:57;1.43;;;1.33;;
2161;SDS011;1087;50.226;8.682;2023-05-10T14:23:22;7.33;;;2.07;;
2161;SDS011;1087;50.226;8.682;2023-05-10T14:25:53;1.67;;;1.57;;
2161;SDS011;1087;50.226;8.682;2023-05-10T14:28:19;2.10;;;1.70;;
2161;SDS011;1087;50.226;8.682;2023-05-10T14:30:45;2.10;;;1.60;;
2161;SDS011;1087;50.226;8.682;2023-05-10T14:33:11;2.37;;;1.80;;
2161;SDS011;1087;50.226;8.682;2023-05-10T14:35:37;1.50;;;1.40;;
2161;SDS011;1087;50.226;8.682;2023-05-10T14:38:03;1.37;;;1.27;;
2161;SDS011;1087;50.226;8.682;2023-05-10T14:40:29;4.57;;;2.90;;
2161;SDS011;1087;50.226;8.682;2023-05-10T14:42:54;2.53;;;2.33;;
2161;SDS011;1087;50.226;8.682;2023-05-10T14:45:21;3.53;;;3.33;;
2161;SDS011;1087;50.226;8.682;2023-05-10T14:47:47;2.90;;;2.70;;
2161;SDS011;1087;50.226;8.682;2023-05-10T14:50:13;3.47;;;3.17;;
2161;SDS011;1087;50.226;8.682;2023-05-10T14:52:39;2.70;;;2.50;;
2161;SDS011;1087;50.226;8.682;2023-05-10T14:55:05;2.10;;;1.80;;
2161;SDS011;1087;50.226;8.682;2023-05-10T14:57:31;2.70;;;1.73;;
2161;SDS011;1087;50.226;8.682;2023-05-10T14:59:57;1.50;;;1.20;;
2161;SDS011;1087;50.226;8.682;2023-05-10T15:02:22;2.10;;;1.33;;
2161;SDS011;1087;50.226;8.682;2023-05-10T15:04:48;1.77;;;1.23;;
2161;SDS011;1087;50.226;8.682;2023-05-10T15:07:13;1.20;;;1.00;;
2161;SDS011;1087;50.226;8.682;2023-05-10T15:09:41;1.60;;;1.37;;
2161;SDS011;1087;50.226;8.682;2023-05-10T15:12:06;2.30;;;1.53;;
2161;SDS011;1087;50.226;8.682;2023-05-10T15:14:32;2.70;;;1.50;;
2161;SDS011;1087;50.226;8.682;2023-05-10T15:16:58;2.93;;;1.60;;
2161;SDS011;1087;50.226;8.682;2023-05-10T15:19:24;1.63;;;1.40;;
2161;SDS011;1087;50.226;8.682;2023-05-10T15:21:49;1.33;;;1.23;;
2161;SDS011;1087;50.226;8.682;2023-05-10T15:24:15;1.93;;;1.40;;
2161;SDS011;1087;50.226;8.682;2023-05-10T15:26:40;1.60;;;1.30;;
2161;SDS011;1087;50.226;8.682;2023-05-10T15:29:06;1.90;;;1.80;;
2161;SDS011;1087;50.226;8.682;2023-05-10T15:31:31;1.37;;;1.27;;
2161;SDS011;1087;50.226;8.682;2023-05-10T15:33:59;3.13;;;1.43;;